sensor_id;sensor_type;location;lat;lon;timestamp;pressure;altitude;pressure_sealevel;temperature;humidity
77216;BME280;66210;53.282;9.864;2024-01-25T00:00:10;101391.56;;;6.71;89.55
77216;BME280;66210;53.282;9.864;2024-01-25T00:02:37;101398.81;;;6.78;88.99
77216;BME280;66210;53.282;9.864;2024-01-25T00:05:04;101368.53;;;6.66;89.02
77216;BME280;66210;53.282;9.864;2024-01-25T00:07:31;101375.88;;;6.75;88.92
77216;BME280;66210;53.282;9.864;2024-01-25T00:09:58;101381.47;;;6.71;88.52
77216;BME280;66210;53.282;9.864;2024-01-25T00:12:25;101370.81;;;6.63;88.91
77216;BME280;66210;53.282;9.864;2024-01-25T00:14:53;101373.34;;;6.63;89.89
77216;BME280;66210;53.282;9.864;2024-01-25T00:17:20;101370.47;;;6.59;89.35
77216;BME280;66210;53.282;9.864;2024-01-25T00:19:46;101376.53;;;6.61;89.73
77216;BME280;66210;53.282;9.864;2024-01-25T00:22:13;101391.25;;;6.66;89.38
77216;BME280;66210;53.282;9.864;2024-01-25T00:24:40;101372.91;;;6.57;89.78
77216;BME280;66210;53.282;9.864;2024-01-25T00:27:06;101389.16;;;6.61;89.30
77216;BME280;66210;53.282;9.864;2024-01-25T00:29:34;101392.91;;;6.66;90.24
77216;BME280;66210;53.282;9.864;2024-01-25T00:32:00;101384.88;;;6.60;89.65
77216;BME280;66210;53.282;9.864;2024-01-25T00:34:27;101377.31;;;6.60;89.41
77216;BME280;66210;53.282;9.864;2024-01-25T00:36:54;101373.25;;;6.62;89.39
77216;BME280;66210;53.282;9.864;2024-01-25T00:39:21;101378.28;;;6.62;89.90
77216;BME280;66210;53.282;9.864;2024-01-25T00:41:51;101382.91;;;6.56;90.03
77216;BME280;66210;53.282;9.864;2024-01-25T00:44:17;101364.13;;;6.64;90.27
77216;BME280;66210;53.282;9.864;2024-01-25T00:46:44;101375.84;;;6.63;90.29
77216;BME280;66210;53.282;9.864;2024-01-25T00:49:14;101367.31;;;6.61;90.44
77216;BME280;66210;53.282;9.864;2024-01-25T00:51:45;101372.69;;;6.66;89.89
77216;BME280;66210;53.282;9.864;2024-01-25T00:54:14;101367.88;;;6.69;90.56
77216;BME280;66210;53.282;9.864;2024-01-25T00:56:41;101369.28;;;6.65;90.64
77216;BME280;66210;53.282;9.864;2024-01-25T00:59:08;101366.41;;;6.61;90.06
77216;BME280;66210;53.282;9.864;2024-01-25T01:01:35;101358.75;;;6.59;90.34
77216;BME280;66210;53.282;9.864;2024-01-25T01:04:02;101363.91;;;6.61;90.47
77216;BME280;66210;53.282;9.864;2024-01-25T01:06:29;101380.91;;;6.63;89.55
77216;BME280;66210;53.282;9.864;2024-01-25T01:08:55;101385.41;;;6.56;90.19
77216;BME280;66210;53.282;9.864;2024-01-25T01:11:22;101377.31;;;6.48;90.28
77216;BME280;66210;53.282;9.864;2024-01-25T01:13:49;101388.81;;;6.56;90.74
77216;BME280;66210;53.282;9.864;2024-01-25T01:16:15;101376.44;;;6.59;89.81
77216;BME280;66210;53.282;9.864;2024-01-25T01:18:42;101384.22;;;6.62;89.79
77216;BME280;66210;53.282;9.864;2024-01-25T01:21:09;101372.38;;;6.61;89.66
77216;BME280;66210;53.282;9.864;2024-01-25T01:23:35;101376.75;;;6.64;89.66
77216;BME280;66210;53.282;9.864;2024-01-25T01:26:03;101363.56;;;6.56;89.93
77216;BME280;66210;53.282;9.864;2024-01-25T01:28:30;101396.38;;;6.68;89.45
77216;BME280;66210;53.282;9.864;2024-01-25T01:30:57;101390.91;;;6.74;89.57
77216;BME280;66210;53.282;9.864;2024-01-25T01:33:23;101382.34;;;6.60;90.08
77216;BME280;66210;53.282;9.864;2024-01-25T01:35:50;101404.97;;;6.70;89.06
77216;BME280;66210;53.282;9.864;2024-01-25T01:38:17;101378.63;;;6.55;90.03
77216;BME280;66210;53.282;9.864;2024-01-25T01:40:44;101396.75;;;6.73;90.03
77216;BME280;66210;53.282;9.864;2024-01-25T01:43:21;101412.13;;;6.76;90.09
77216;BME280;66210;53.282;9.864;2024-01-25T01:45:49;101411.25;;;6.75;89.16
77216;BME280;66210;53.282;9.864;2024-01-25T01:48:16;101412.78;;;6.73;90.00
77216;BME280;66210;53.282;9.864;2024-01-25T01:50:43;101395.09;;;6.61;88.90
77216;BME280;66210;53.282;9.864;2024-01-25T01:53:11;101404.63;;;6.65;90.00
77216;BME280;66210;53.282;9.864;2024-01-25T01:55:39;101395.63;;;6.69;90.05
77216;BME280;66210;53.282;9.864;2024-01-25T01:58:07;101394.66;;;6.55;89.53
77216;BME280;66210;53.282;9.864;2024-01-25T02:00:33;101374.78;;;6.48;89.87
77216;BME280;66210;53.282;9.864;2024-01-25T02:03:00;101388.06;;;6.57;89.87
77216;BME280;66210;53.282;9.864;2024-01-25T02:05:28;101386.81;;;6.52;90.77
77216;BME280;66210;53.282;9.864;2024-01-25T02:07:54;101396.19;;;6.65;89.60
77216;BME280;66210;53.282;9.864;2024-01-25T02:10:21;101397.50;;;6.60;90.27
77216;BME280;66210;53.282;9.864;2024-01-25T02:12:48;101391.13;;;6.53;90.36
77216;BME280;66210;53.282;9.864;2024-01-25T02:15:16;101411.78;;;6.59;91.04
77216;BME280;66210;53.282;9.864;2024-01-25T02:17:42;101415.19;;;6.60;89.71
77216;BME280;66210;53.282;9.864;2024-01-25T02:20:10;101427.03;;;6.61;89.57
77216;BME280;66210;53.282;9.864;2024-01-25T02:22:37;101415.28;;;6.61;90.60
77216;BME280;66210;53.282;9.864;2024-01-25T02:25:04;101425.72;;;6.66;89.64
77216;BME280;66210;53.282;9.864;2024-01-25T02:27:31;101441.84;;;6.68;89.94
77216;BME280;66210;53.282;9.864;2024-01-25T02:29:58;101437.78;;;6.70;89.39
77216;BME280;66210;53.282;9.864;2024-01-25T02:32:25;101411.44;;;6.55;90.34
77216;BME280;66210;53.282;9.864;2024-01-25T02:34:52;101423.75;;;6.62;89.92
77216;BME280;66210;53.282;9.864;2024-01-25T02:37:19;101430.66;;;6.64;89.77
77216;BME280;66210;53.282;9.864;2024-01-25T02:39:46;101447.88;;;6.70;89.50
77216;BME280;66210;53.282;9.864;2024-01-25T02:42:12;101438.66;;;6.59;89.96
77216;BME280;66210;53.282;9.864;2024-01-25T02:44:40;101446.81;;;6.66;90.62
77216;BME280;66210;53.282;9.864;2024-01-25T02:47:07;101459.63;;;6.70;90.77
77216;BME280;66210;53.282;9.864;2024-01-25T02:49:34;101433.84;;;6.62;90.43
77216;BME280;66210;53.282;9.864;2024-01-25T02:52:01;101449.53;;;6.70;90.90
77216;BME280;66210;53.282;9.864;2024-01-25T02:54:28;101444.50;;;6.70;90.10
77216;BME280;66210;53.282;9.864;2024-01-25T02:56:55;101451.19;;;6.69;89.75
77216;BME280;66210;53.282;9.864;2024-01-25T02:59:22;101443.50;;;6.68;90.44
77216;BME280;66210;53.282;9.864;2024-01-25T03:01:49;101462.16;;;6.70;90.83
77216;BME280;66210;53.282;9.864;2024-01-25T03:04:17;101466.34;;;6.69;90.76
77216;BME280;66210;53.282;9.864;2024-01-25T03:06:43;101457.22;;;6.71;89.93
77216;BME280;66210;53.282;9.864;2024-01-25T03:09:11;101465.56;;;6.70;90.05
77216;BME280;66210;53.282;9.864;2024-01-25T03:11:37;101480.09;;;6.73;89.95
77216;BME280;66210;53.282;9.864;2024-01-25T03:14:04;101475.31;;;6.65;91.14
77216;BME280;66210;53.282;9.864;2024-01-25T03:16:31;101471.81;;;6.63;90.20
77216;BME280;66210;53.282;9.864;2024-01-25T03:18:58;101480.63;;;6.69;90.00
77216;BME280;66210;53.282;9.864;2024-01-25T03:21:25;101483.56;;;6.75;89.77
77216;BME280;66210;53.282;9.864;2024-01-25T03:23:51;101480.97;;;6.73;90.14
77216;BME280;66210;53.282;9.864;2024-01-25T03:26:18;101485.88;;;6.72;90.22
77216;BME280;66210;53.282;9.864;2024-01-25T03:28:44;101461.38;;;6.59;89.74
77216;BME280;66210;53.282;9.864;2024-01-25T03:31:11;101480.31;;;6.76;90.36
77216;BME280;66210;53.282;9.864;2024-01-25T03:33:37;101480.09;;;6.73;90.25
77216;BME280;66210;53.282;9.864;2024-01-25T03:36:05;101482.63;;;6.73;90.04
77216;BME280;66210;53.282;9.864;2024-01-25T03:38:32;101485.56;;;6.67;90.61
77216;BME280;66210;53.282;9.864;2024-01-25T03:40:59;101483.03;;;6.67;90.96
77216;BME280;66210;53.282;9.864;2024-01-25T03:43:25;101504.34;;;6.71;90.27
77216;BME280;66210;53.282;9.864;2024-01-25T03:46:01;101502.34;;;6.66;90.95
77216;BME280;66210;53.282;9.864;2024-01-25T03:48:30;101522.38;;;6.75;90.61
77216;BME280;66210;53.282;9.864;2024-01-25T03:50:56;101512.66;;;6.70;91.16
77216;BME280;66210;53.282;9.864;2024-01-25T03:53:23;101530.81;;;6.76;90.02
77216;BME280;66210;53.282;9.864;2024-01-25T03:55:50;101528.16;;;6.74;91.25
77216;BME280;66210;53.282;9.864;2024-01-25T03:58:19;101514.97;;;6.66;90.98
77216;BME280;66210;53.282;9.864;2024-01-25T04:00:46;101530.34;;;6.70;91.74
77216;BME280;66210;53.282;9.864;2024-01-25T04:03:13;101545.50;;;6.70;90.74
77216;BME280;66210;53.282;9.864;2024-01-25T04:05:40;101543.09;;;6.71;91.76
77216;BME280;66210;53.282;9.864;2024-01-25T04:08:06;101544.84;;;6.72;90.31
77216;BME280;66210;53.282;9.864;2024-01-25T04:10:33;101536.84;;;6.66;91.37
77216;BME280;66210;53.282;9.864;2024-01-25T04:13:00;101538.38;;;6.64;91.57
77216;BME280;66210;53.282;9.864;2024-01-25T04:15:27;101559.13;;;6.72;91.35
77216;BME280;66210;53.282;9.864;2024-01-25T04:17:54;101561.53;;;6.70;91.37
77216;BME280;66210;53.282;9.864;2024-01-25T04:20:22;101553.19;;;6.59;91.03
77216;BME280;66210;53.282;9.864;2024-01-25T04:22:49;101566.34;;;6.67;92.04
77216;BME280;66210;53.282;9.864;2024-01-25T04:25:17;101559.22;;;6.61;90.68
77216;BME280;66210;53.282;9.864;2024-01-25T04:27:43;101578.00;;;6.65;91.64
77216;BME280;66210;53.282;9.864;2024-01-25T04:30:10;101579.75;;;6.66;91.26
77216;BME280;66210;53.282;9.864;2024-01-25T04:32:37;101572.06;;;6.64;92.08
77216;BME280;66210;53.282;9.864;2024-01-25T04:35:04;101579.19;;;6.70;90.83
77216;BME280;66210;53.282;9.864;2024-01-25T04:37:30;101571.06;;;6.62;90.74
77216;BME280;66210;53.282;9.864;2024-01-25T04:39:57;101587.22;;;6.64;91.59
77216;BME280;66210;53.282;9.864;2024-01-25T04:42:24;101570.06;;;6.60;91.93
77216;BME280;66210;53.282;9.864;2024-01-25T04:44:50;101580.72;;;6.68;91.68
77216;BME280;66210;53.282;9.864;2024-01-25T04:47:17;101577.78;;;6.62;91.71
77216;BME280;66210;53.282;9.864;2024-01-25T04:49:44;101576.25;;;6.64;91.73
77216;BME280;66210;53.282;9.864;2024-01-25T04:52:10;101571.28;;;6.65;91.88
77216;BME280;66210;53.282;9.864;2024-01-25T04:54:37;101548.53;;;6.54;91.71
77216;BME280;66210;53.282;9.864;2024-01-25T04:57:04;101557.97;;;6.56;91.77
77216;BME280;66210;53.282;9.864;2024-01-25T04:59:33;101574.66;;;6.54;92.11
77216;BME280;66210;53.282;9.864;2024-01-25T05:02:00;101574.59;;;6.64;91.27
77216;BME280;66210;53.282;9.864;2024-01-25T05:04:28;101584.47;;;6.61;91.58
77216;BME280;66210;53.282;9.864;2024-01-25T05:06:56;101600.72;;;6.65;91.28
77216;BME280;66210;53.282;9.864;2024-01-25T05:09:22;101607.19;;;6.61;92.25
77216;BME280;66210;53.282;9.864;2024-01-25T05:11:49;101597.72;;;6.59;92.03
77216;BME280;66210;53.282;9.864;2024-01-25T05:14:17;101595.38;;;6.50;92.32
77216;BME280;66210;53.282;9.864;2024-01-25T05:16:44;101589.56;;;6.51;91.29
77216;BME280;66210;53.282;9.864;2024-01-25T05:19:11;101591.66;;;6.57;91.95
77216;BME280;66210;53.282;9.864;2024-01-25T05:21:37;101620.44;;;6.59;91.37
77216;BME280;66210;53.282;9.864;2024-01-25T05:24:04;101607.72;;;6.57;92.15
77216;BME280;66210;53.282;9.864;2024-01-25T05:26:31;101605.06;;;6.56;91.85
77216;BME280;66210;53.282;9.864;2024-01-25T05:28:57;101613.78;;;6.59;91.10
77216;BME280;66210;53.282;9.864;2024-01-25T05:31:24;101621.56;;;6.62;91.28
77216;BME280;66210;53.282;9.864;2024-01-25T05:33:50;101613.78;;;6.59;91.08
77216;BME280;66210;53.282;9.864;2024-01-25T05:36:17;101616.91;;;6.57;91.44
77216;BME280;66210;53.282;9.864;2024-01-25T05:38:44;101638.47;;;6.63;91.79
77216;BME280;66210;53.282;9.864;2024-01-25T05:41:10;101634.19;;;6.62;91.44
77216;BME280;66210;53.282;9.864;2024-01-25T05:43:37;101615.47;;;6.49;91.14
77216;BME280;66210;53.282;9.864;2024-01-25T05:46:04;101655.28;;;6.63;92.11
77216;BME280;66210;53.282;9.864;2024-01-25T05:48:30;101665.63;;;6.66;91.62
77216;BME280;66210;53.282;9.864;2024-01-25T05:50:57;101658.91;;;6.66;91.27
77216;BME280;66210;53.282;9.864;2024-01-25T05:53:24;101648.50;;;6.52;91.20
77216;BME280;66210;53.282;9.864;2024-01-25T05:55:52;101652.03;;;6.54;92.37
77216;BME280;66210;53.282;9.864;2024-01-25T05:58:18;101667.66;;;6.60;91.25
77216;BME280;66210;53.282;9.864;2024-01-25T06:00:45;101641.47;;;6.48;91.87
77216;BME280;66210;53.282;9.864;2024-01-25T06:03:12;101657.75;;;6.51;92.42
77216;BME280;66210;53.282;9.864;2024-01-25T06:05:38;101670.72;;;6.56;92.69
77216;BME280;66210;53.282;9.864;2024-01-25T06:08:06;101661.63;;;6.58;92.53
77216;BME280;66210;53.282;9.864;2024-01-25T06:10:32;101669.84;;;6.55;92.49
77216;BME280;66210;53.282;9.864;2024-01-25T06:12:59;101665.31;;;6.51;92.18
77216;BME280;66210;53.282;9.864;2024-01-25T06:15:26;101673.03;;;6.53;92.04
77216;BME280;66210;53.282;9.864;2024-01-25T06:17:53;101658.25;;;6.47;91.64
77216;BME280;66210;53.282;9.864;2024-01-25T06:20:19;101678.16;;;6.54;92.56
77216;BME280;66210;53.282;9.864;2024-01-25T06:22:46;101669.00;;;6.44;92.25
77216;BME280;66210;53.282;9.864;2024-01-25T06:25:13;101679.59;;;6.51;91.69
77216;BME280;66210;53.282;9.864;2024-01-25T06:27:40;101700.25;;;6.57;92.26
77216;BME280;66210;53.282;9.864;2024-01-25T06:30:07;101697.00;;;6.48;91.74
77216;BME280;66210;53.282;9.864;2024-01-25T06:32:34;101701.81;;;6.44;91.85
77216;BME280;66210;53.282;9.864;2024-01-25T06:35:00;101704.34;;;6.44;92.10
77216;BME280;66210;53.282;9.864;2024-01-25T06:37:27;101715.59;;;6.48;91.63
77216;BME280;66210;53.282;9.864;2024-01-25T06:39:54;101720.09;;;6.52;91.86
77216;BME280;66210;53.282;9.864;2024-01-25T06:42:20;101724.63;;;6.56;92.54
77216;BME280;66210;53.282;9.864;2024-01-25T06:44:48;101715.59;;;6.48;91.39
77216;BME280;66210;53.282;9.864;2024-01-25T06:47:15;101744.81;;;6.56;91.67
77216;BME280;66210;53.282;9.864;2024-01-25T06:49:41;101720.50;;;6.47;91.11
77216;BME280;66210;53.282;9.864;2024-01-25T06:52:08;101730.97;;;6.41;92.19
77216;BME280;66210;53.282;9.864;2024-01-25T06:54:35;101747.41;;;6.46;93.05
77216;BME280;66210;53.282;9.864;2024-01-25T06:57:01;101753.44;;;6.48;93.27
77216;BME280;66210;53.282;9.864;2024-01-25T06:59:29;101750.16;;;6.49;92.59
77216;BME280;66210;53.282;9.864;2024-01-25T07:01:56;101758.59;;;6.50;92.14
77216;BME280;66210;53.282;9.864;2024-01-25T07:04:23;101735.03;;;6.39;92.67
77216;BME280;66210;53.282;9.864;2024-01-25T07:06:50;101760.91;;;6.47;92.76
77216;BME280;66210;53.282;9.864;2024-01-25T07:09:18;101759.25;;;6.47;93.10
77216;BME280;66210;53.282;9.864;2024-01-25T07:11:45;101758.50;;;6.48;92.79
77216;BME280;66210;53.282;9.864;2024-01-25T07:14:12;101765.94;;;6.47;93.37
77216;BME280;66210;53.282;9.864;2024-01-25T07:16:39;101766.69;;;6.45;93.02
77216;BME280;66210;53.282;9.864;2024-01-25T07:19:05;101763.28;;;6.45;93.03
77216;BME280;66210;53.282;9.864;2024-01-25T07:21:32;101781.31;;;6.50;92.63
77216;BME280;66210;53.282;9.864;2024-01-25T07:24:01;101789.03;;;6.51;92.39
77216;BME280;66210;53.282;9.864;2024-01-25T07:26:29;101770.75;;;6.43;93.19
77216;BME280;66210;53.282;9.864;2024-01-25T07:28:57;101776.16;;;6.48;93.34
77216;BME280;66210;53.282;9.864;2024-01-25T07:31:26;101787.38;;;6.52;93.73
77216;BME280;66210;53.282;9.864;2024-01-25T07:33:53;101798.13;;;6.49;93.26
77216;BME280;66210;53.282;9.864;2024-01-25T07:36:21;101781.84;;;6.45;93.62
77216;BME280;66210;53.282;9.864;2024-01-25T07:38:51;101784.00;;;6.41;92.72
77216;BME280;66210;53.282;9.864;2024-01-25T07:41:17;101793.72;;;6.47;93.86
77216;BME280;66210;53.282;9.864;2024-01-25T07:43:44;101776.84;;;6.35;93.51
77216;BME280;66210;53.282;9.864;2024-01-25T07:46:11;101807.84;;;6.55;92.82
77216;BME280;66210;53.282;9.864;2024-01-25T07:48:41;101810.88;;;6.51;93.51
77216;BME280;66210;53.282;9.864;2024-01-25T07:51:12;101807.72;;;6.53;93.23
77216;BME280;66210;53.282;9.864;2024-01-25T07:53:42;101805.47;;;6.46;93.16
77216;BME280;66210;53.282;9.864;2024-01-25T07:56:09;101806.56;;;6.50;93.18
77216;BME280;66210;53.282;9.864;2024-01-25T07:58:37;101804.47;;;6.44;93.34
77216;BME280;66210;53.282;9.864;2024-01-25T08:01:04;101803.59;;;6.43;93.65
77216;BME280;66210;53.282;9.864;2024-01-25T08:03:34;101815.00;;;6.50;92.84
77216;BME280;66210;53.282;9.864;2024-01-25T08:06:02;101820.84;;;6.49;93.93
77216;BME280;66210;53.282;9.864;2024-01-25T08:08:29;101822.50;;;6.49;93.61
77216;BME280;66210;53.282;9.864;2024-01-25T08:10:56;101817.66;;;6.52;93.08
77216;BME280;66210;53.282;9.864;2024-01-25T08:13:23;101805.31;;;6.44;92.54
77216;BME280;66210;53.282;9.864;2024-01-25T08:15:51;101810.75;;;6.49;92.69
77216;BME280;66210;53.282;9.864;2024-01-25T08:18:18;101796.53;;;6.39;93.23
77216;BME280;66210;53.282;9.864;2024-01-25T08:20:45;101799.00;;;6.50;92.44
77216;BME280;66210;53.282;9.864;2024-01-25T08:23:13;101817.03;;;6.54;92.84
77216;BME280;66210;53.282;9.864;2024-01-25T08:25:41;101813.41;;;6.51;92.95
77216;BME280;66210;53.282;9.864;2024-01-25T08:28:08;101812.75;;;6.53;93.50
77216;BME280;66210;53.282;9.864;2024-01-25T08:30:34;101798.63;;;6.45;92.94
77216;BME280;66210;53.282;9.864;2024-01-25T08:33:01;101811.53;;;6.48;93.72
77216;BME280;66210;53.282;9.864;2024-01-25T08:35:29;101805.84;;;6.40;93.21
77216;BME280;66210;53.282;9.864;2024-01-25T08:37:57;101823.78;;;6.43;94.38
77216;BME280;66210;53.282;9.864;2024-01-25T08:40:23;101817.31;;;6.47;93.30
77216;BME280;66210;53.282;9.864;2024-01-25T08:42:52;101825.66;;;6.46;94.00
77216;BME280;66210;53.282;9.864;2024-01-25T08:45:18;101812.91;;;6.44;93.05
77216;BME280;66210;53.282;9.864;2024-01-25T08:47:45;101821.47;;;6.47;93.09
77216;BME280;66210;53.282;9.864;2024-01-25T08:50:13;101824.66;;;6.44;93.57
77216;BME280;66210;53.282;9.864;2024-01-25T08:52:40;101819.47;;;6.42;93.54
77216;BME280;66210;53.282;9.864;2024-01-25T08:55:07;101824.38;;;6.51;94.77
77216;BME280;66210;53.282;9.864;2024-01-25T08:57:36;101824.50;;;6.53;93.88
77216;BME280;66210;53.282;9.864;2024-01-25T09:00:03;101829.50;;;6.63;92.71
77216;BME280;66210;53.282;9.864;2024-01-25T09:02:37;101834.91;;;6.68;93.20
77216;BME280;66210;53.282;9.864;2024-01-25T09:05:07;101845.66;;;6.65;93.06
77216;BME280;66210;53.282;9.864;2024-01-25T09:07:35;101844.78;;;6.64;92.88
77216;BME280;66210;53.282;9.864;2024-01-25T09:10:02;101832.19;;;6.54;92.12
77216;BME280;66210;53.282;9.864;2024-01-25T09:12:28;101861.19;;;6.70;93.33
77216;BME280;66210;53.282;9.864;2024-01-25T09:14:55;101863.47;;;6.66;92.94
77216;BME280;66210;53.282;9.864;2024-01-25T09:17:22;101867.88;;;6.69;92.26
77216;BME280;66210;53.282;9.864;2024-01-25T09:19:49;101871.41;;;6.71;92.46
77216;BME280;66210;53.282;9.864;2024-01-25T09:22:17;101854.25;;;6.67;91.75
77216;BME280;66210;53.282;9.864;2024-01-25T09:24:46;101875.59;;;6.71;92.23
77216;BME280;66210;53.282;9.864;2024-01-25T09:27:14;101873.06;;;6.71;91.44
77216;BME280;66210;53.282;9.864;2024-01-25T09:29:41;101879.63;;;6.69;92.03
77216;BME280;66210;53.282;9.864;2024-01-25T09:32:09;101884.91;;;6.72;91.82
77216;BME280;66210;53.282;9.864;2024-01-25T09:34:37;101896.81;;;6.73;92.86
77216;BME280;66210;53.282;9.864;2024-01-25T09:37:06;101881.03;;;6.65;92.88
77216;BME280;66210;53.282;9.864;2024-01-25T09:39:33;101896.03;;;6.63;92.92
77216;BME280;66210;53.282;9.864;2024-01-25T09:42:03;101921.78;;;6.70;92.96
77216;BME280;66210;53.282;9.864;2024-01-25T09:44:30;101899.47;;;6.64;93.33
77216;BME280;66210;53.282;9.864;2024-01-25T09:46:58;101924.97;;;6.77;93.13
77216;BME280;66210;53.282;9.864;2024-01-25T09:49:24;101937.69;;;6.79;91.91
77216;BME280;66210;53.282;9.864;2024-01-25T09:51:51;101930.75;;;6.76;93.05
77216;BME280;66210;53.282;9.864;2024-01-25T09:54:19;101932.00;;;6.81;92.30
77216;BME280;66210;53.282;9.864;2024-01-25T09:56:50;101926.47;;;6.75;92.32
77216;BME280;66210;53.282;9.864;2024-01-25T09:59:17;101929.25;;;6.68;92.24
77216;BME280;66210;53.282;9.864;2024-01-25T10:01:44;101922.31;;;6.65;92.02
77216;BME280;66210;53.282;9.864;2024-01-25T10:04:10;101941.00;;;6.78;92.17
77216;BME280;66210;53.282;9.864;2024-01-25T10:06:37;101938.09;;;6.73;93.02
77216;BME280;66210;53.282;9.864;2024-01-25T10:09:04;101933.69;;;6.71;93.63
77216;BME280;66210;53.282;9.864;2024-01-25T10:11:34;101932.91;;;6.72;93.06
77216;BME280;66210;53.282;9.864;2024-01-25T10:14:08;101941.22;;;6.81;91.70
77216;BME280;66210;53.282;9.864;2024-01-25T10:16:35;101931.63;;;6.77;91.44
77216;BME280;66210;53.282;9.864;2024-01-25T10:19:05;101922.78;;;6.82;92.53
77216;BME280;66210;53.282;9.864;2024-01-25T10:21:35;101924.91;;;6.87;92.54
77216;BME280;66210;53.282;9.864;2024-01-25T10:24:05;101933.78;;;6.82;92.96
77216;BME280;66210;53.282;9.864;2024-01-25T10:26:34;101924.78;;;6.86;91.80
77216;BME280;66210;53.282;9.864;2024-01-25T10:29:01;101924.03;;;6.87;91.34
77216;BME280;66210;53.282;9.864;2024-01-25T10:31:30;101910.91;;;6.81;91.73
77216;BME280;66210;53.282;9.864;2024-01-25T10:33:59;101919.84;;;6.87;91.99
77216;BME280;66210;53.282;9.864;2024-01-25T10:36:27;101922.38;;;6.87;92.36
77216;BME280;66210;53.282;9.864;2024-01-25T10:38:55;101922.38;;;6.87;92.45
77216;BME280;66210;53.282;9.864;2024-01-25T10:41:24;101923.53;;;6.91;92.33
77216;BME280;66210;53.282;9.864;2024-01-25T10:43:54;101922.38;;;6.87;92.09
77216;BME280;66210;53.282;9.864;2024-01-25T10:46:21;101934.75;;;6.95;91.65
77216;BME280;66210;53.282;9.864;2024-01-25T10:48:49;101935.75;;;6.97;91.22
77216;BME280;66210;53.282;9.864;2024-01-25T10:51:17;101938.63;;;7.01;90.69
77216;BME280;66210;53.282;9.864;2024-01-25T10:53:45;101939.53;;;7.02;91.21
77216;BME280;66210;53.282;9.864;2024-01-25T10:56:13;101949.00;;;7.04;91.25
77216;BME280;66210;53.282;9.864;2024-01-25T10:58:41;101939.28;;;6.99;90.75
77216;BME280;66210;53.282;9.864;2024-01-25T11:01:09;101949.25;;;7.07;90.66
77216;BME280;66210;53.282;9.864;2024-01-25T11:03:45;101939.06;;;6.96;91.32
77216;BME280;66210;53.282;9.864;2024-01-25T11:06:14;101930.69;;;6.97;91.13
77216;BME280;66210;53.282;9.864;2024-01-25T11:08:41;101923.88;;;6.96;89.94
77216;BME280;66210;53.282;9.864;2024-01-25T11:11:11;101949.75;;;7.03;90.37
77216;BME280;66210;53.282;9.864;2024-01-25T11:13:40;101943.19;;;7.05;90.55
77216;BME280;66210;53.282;9.864;2024-01-25T11:16:18;101925.28;;;6.92;90.23
77216;BME280;66210;53.282;9.864;2024-01-25T11:18:51;101944.59;;;7.02;90.01
77216;BME280;66210;53.282;9.864;2024-01-25T11:21:39;101942.16;;;7.03;90.29
77216;BME280;66210;53.282;9.864;2024-01-25T11:24:12;101951.63;;;7.06;90.17
77216;BME280;66210;53.282;9.864;2024-01-25T11:26:39;101923.75;;;6.94;90.83
77216;BME280;66210;53.282;9.864;2024-01-25T11:29:06;101915.81;;;6.90;89.97
77216;BME280;66210;53.282;9.864;2024-01-25T11:31:33;101932.72;;;7.01;89.81
77216;BME280;66210;53.282;9.864;2024-01-25T11:34:00;101940.53;;;7.04;90.51
77216;BME280;66210;53.282;9.864;2024-01-25T11:36:28;101934.72;;;7.05;90.00
77216;BME280;66210;53.282;9.864;2024-01-25T11:38:55;101930.31;;;7.02;90.27
77216;BME280;66210;53.282;9.864;2024-01-25T11:41:23;101929.44;;;7.02;89.79
77216;BME280;66210;53.282;9.864;2024-01-25T11:43:50;101912.41;;;6.89;90.28
77216;BME280;66210;53.282;9.864;2024-01-25T11:46:17;101916.69;;;7.00;89.69
77216;BME280;66210;53.282;9.864;2024-01-25T11:48:44;101912.53;;;6.91;90.18
77216;BME280;66210;53.282;9.864;2024-01-25T11:51:12;101926.66;;;6.99;90.13
77216;BME280;66210;53.282;9.864;2024-01-25T11:53:40;101935.38;;;7.02;89.80
77216;BME280;66210;53.282;9.864;2024-01-25T11:56:12;101932.72;;;7.01;90.71
77216;BME280;66210;53.282;9.864;2024-01-25T11:58:40;101913.53;;;6.93;90.49
77216;BME280;66210;53.282;9.864;2024-01-25T12:01:08;101906.72;;;6.92;90.84
77216;BME280;66210;53.282;9.864;2024-01-25T12:03:36;101923.63;;;6.93;90.20
77216;BME280;66210;53.282;9.864;2024-01-25T12:06:04;101935.38;;;7.02;90.86
77216;BME280;66210;53.282;9.864;2024-01-25T12:08:32;101925.78;;;6.98;90.37
77216;BME280;66210;53.282;9.864;2024-01-25T12:13:32;101928.09;;;7.17;90.03
77216;BME280;66210;53.282;9.864;2024-01-25T12:16:01;101929.59;;;7.25;90.86
77216;BME280;66210;53.282;9.864;2024-01-25T12:18:29;101917.97;;;7.27;88.71
77216;BME280;66210;53.282;9.864;2024-01-25T12:21:00;101919.19;;;7.33;89.08
77216;BME280;66210;53.282;9.864;2024-01-25T12:23:34;101935.84;;;7.41;89.11
77216;BME280;66210;53.282;9.864;2024-01-25T12:26:03;101906.31;;;7.29;88.74
77216;BME280;66210;53.282;9.864;2024-01-25T12:28:31;101923.72;;;7.37;88.90
77216;BME280;66210;53.282;9.864;2024-01-25T12:31:02;101921.97;;;7.36;88.67
77216;BME280;66210;53.282;9.864;2024-01-25T12:33:34;101928.09;;;7.49;88.89
77216;BME280;66210;53.282;9.864;2024-01-25T12:36:02;101926.44;;;7.50;88.39
77216;BME280;66210;53.282;9.864;2024-01-25T12:38:30;101923.78;;;7.48;87.56
77216;BME280;66210;53.282;9.864;2024-01-25T12:41:00;101923.53;;;7.56;88.14
77216;BME280;66210;53.282;9.864;2024-01-25T12:43:28;101911.50;;;7.53;87.01
77216;BME280;66210;53.282;9.864;2024-01-25T12:45:56;101908.28;;;7.66;87.40
77216;BME280;66210;53.282;9.864;2024-01-25T12:48:29;101919.09;;;7.75;86.78
77216;BME280;66210;53.282;9.864;2024-01-25T12:50:56;101893.97;;;7.66;85.79
77216;BME280;66210;53.282;9.864;2024-01-25T12:53:23;101905.03;;;7.79;86.22
77216;BME280;66210;53.282;9.864;2024-01-25T12:55:50;101885.97;;;7.72;86.71
77216;BME280;66210;53.282;9.864;2024-01-25T12:58:18;101891.91;;;7.73;86.08
77216;BME280;66210;53.282;9.864;2024-01-25T13:00:45;101918.25;;;7.86;86.53
77216;BME280;66210;53.282;9.864;2024-01-25T13:03:12;101904.59;;;7.84;85.29